Time;durP1;ratioP1;P1;durP2;ratioP2;P2;SDS_P1;SDS_P2;PMS_P1;PMS_P2;Temp;Humidity;BMP_temperature;BMP_pressure;BME280_temperature;BME280_humidity;BME280_pressure;Samples;Min_cycle;Max_cycle;Signal;HPM_P1;HPM_P2
2023/03/14 00:01:58;;;;;;;2.10;1.52;;;15.40;78.80;;;;;;4918573;29;20181;-89
2023/03/14 00:04:24;;;;;;;2.10;1.50;;;15.30;78.80;;;;;;4902565;29;20024;-87
2023/03/14 00:06:50;;;;;;;1.92;1.50;;;15.30;78.70;;;;;;4887324;29;20024;-87
2023/03/14 00:09:17;;;;;;;1.85;1.50;;;15.30;78.80;;;;;;4903155;29;20044;-89
2023/03/14 00:11:43;;;;;;;2.95;1.67;;;15.30;78.80;;;;;;4889543;29;20028;-88
2023/03/14 00:14:09;;;;;;;2.38;1.60;;;15.30;78.80;;;;;;4921712;29;20067;-88
2023/03/14 00:16:40;;;;;;;1.90;1.40;;;15.30;78.80;;;;;;4920356;29;20035;-86
2023/03/14 00:19:06;;;;;;;2.50;1.50;;;15.30;78.80;;;;;;4919514;29;20115;-87
2023/03/14 00:21:32;;;;;;;1.75;1.38;;;15.30;78.80;;;;;;4904335;29;20043;-88
2023/03/14 00:23:58;;;;;;;1.85;1.50;;;15.30;78.80;;;;;;4905409;29;20069;-87
2023/03/14 00:26:23;;;;;;;2.70;1.67;;;15.20;78.80;;;;;;4918939;29;20489;-87
2023/03/14 00:28:53;;;;;;;2.00;1.50;;;15.20;78.80;;;;;;4916863;29;20082;-87
2023/03/14 00:31:19;;;;;;;2.47;1.70;;;15.20;78.80;;;;;;4902416;29;20036;-89
2023/03/14 00:33:45;;;;;;;2.72;1.60;;;15.20;78.80;;;;;;4902800;29;20540;-88
2023/03/14 00:36:14;;;;;;;1.85;1.50;;;15.20;78.90;;;;;;4918510;29;20024;-88
2023/03/14 00:38:41;;;;;;;2.08;1.50;;;15.20;78.80;;;;;;4918107;29;20036;-88
2023/03/14 00:41:10;;;;;;;2.72;1.60;;;15.10;78.80;;;;;;4918534;29;20084;-88
2023/03/14 00:43:36;;;;;;;1.67;1.50;;;15.10;78.80;;;;;;4902131;29;20098;-87
2023/03/14 00:46:02;;;;;;;1.90;1.40;;;15.10;78.80;;;;;;4901854;29;20032;-87
2023/03/14 00:48:28;;;;;;;1.33;1.23;;;15.10;78.80;;;;;;4926475;29;20080;-87
2023/03/14 00:50:54;;;;;;;1.50;1.30;;;15.10;78.90;;;;;;4909815;29;20024;-88
2023/03/14 00:53:20;;;;;;;1.85;1.42;;;15.10;78.90;;;;;;4921053;29;20469;-89
2023/03/14 00:55:46;;;;;;;1.90;1.35;;;15.00;78.90;;;;;;4919034;29;20032;-87
2023/03/14 00:58:13;;;;;;;1.95;1.60;;;15.00;78.90;;;;;;4886375;29;20039;-86
2023/03/14 01:00:40;;;;;;;3.42;1.52;;;15.00;78.90;;;;;;4901631;29;20047;-87
2023/03/14 01:03:06;;;;;;;2.63;1.40;;;15.10;79.00;;;;;;4901617;29;20107;-87
2023/03/14 01:05:33;;;;;;;2.05;1.27;;;15.00;78.90;;;;;;4886157;29;20202;-87
2023/03/14 01:07:59;;;;;;;1.83;1.50;;;15.00;78.90;;;;;;4886041;29;20043;-87
2023/03/14 01:10:25;;;;;;;2.17;1.30;;;15.00;78.90;;;;;;4901763;29;20032;-87
2023/03/14 01:12:51;;;;;;;2.22;1.17;;;15.00;78.90;;;;;;4901733;29;20087;-88
2023/03/14 01:15:17;;;;;;;2.50;1.42;;;15.00;78.90;;;;;;4917431;29;20036;-86
2023/03/14 01:17:43;;;;;;;2.35;1.50;;;14.90;78.90;;;;;;4903777;29;20122;-88
2023/03/14 01:20:12;;;;;;;1.95;1.40;;;14.90;78.90;;;;;;4919719;29;20032;-88
2023/03/14 01:22:39;;;;;;;1.77;1.30;;;14.90;78.90;;;;;;4902298;29;20039;-88
2023/03/14 01:25:16;;;;;;;2.88;1.30;;;14.90;78.90;;;;;;4886466;29;20122;-87
2023/03/14 01:27:43;;;;;;;2.20;1.30;;;14.90;79.00;;;;;;4902179;29;20036;-87
2023/03/14 01:30:14;;;;;;;1.30;1.20;;;14.90;78.90;;;;;;4901881;29;20020;-87
2023/03/14 01:32:40;;;;;;;1.33;1.23;;;14.80;78.90;;;;;;4902617;29;20119;-87
2023/03/14 01:35:06;;;;;;;1.67;1.20;;;14.80;78.90;;;;;;4886798;29;20024;-87
2023/03/14 01:37:33;;;;;;;1.55;1.30;;;14.80;78.90;;;;;;4917484;29;20043;-88
2023/03/14 01:39:59;;;;;;;2.35;1.27;;;14.80;78.90;;;;;;4906021;29;20051;-88
2023/03/14 01:42:25;;;;;;;1.90;1.17;;;14.80;78.90;;;;;;4906171;29;20040;-88
2023/03/14 01:44:59;;;;;;;1.27;1.17;;;14.80;78.90;;;;;;4907466;29;20028;-87
2023/03/14 01:47:26;;;;;;;1.25;1.15;;;14.80;79.00;;;;;;4906718;29;20032;-87
2023/03/14 01:50:12;;;;;;;2.40;1.20;;;14.80;79.00;;;;;;4890815;29;20123;-87
2023/03/14 01:52:46;;;;;;;1.33;1.23;;;14.70;79.00;;;;;;4905495;29;20028;-86
2023/03/14 01:55:23;;;;;;;1.65;1.20;;;14.70;78.90;;;;;;4905813;29;20032;-87
2023/03/14 01:57:53;;;;;;;1.40;1.10;;;14.70;79.00;;;;;;4905298;29;20040;-87
2023/03/14 02:00:22;;;;;;;1.63;1.20;;;14.70;79.00;;;;;;4920726;29;20032;-88
2023/03/14 02:02:53;;;;;;;2.63;1.80;;;14.70;79.00;;;;;;4920772;29;20135;-88
2023/03/14 02:05:24;;;;;;;1.88;1.27;;;14.60;79.00;;;;;;4905141;29;20155;-88
2023/03/14 02:08:02;;;;;;;2.17;1.17;;;14.70;79.00;;;;;;4905525;29;20047;-87
2023/03/14 02:10:42;;;;;;;1.42;1.20;;;14.60;79.00;;;;;;4905020;29;20132;-87
2023/03/14 02:13:11;;;;;;;2.10;1.10;;;14.60;79.00;;;;;;4889576;29;20040;-87
2023/03/14 02:15:55;;;;;;;2.53;1.20;;;14.60;79.00;;;;;;4907989;29;20481;-89
2023/03/14 02:18:40;;;;;;;2.13;1.10;;;14.60;79.00;;;;;;4907157;29;20123;-87
2023/03/14 02:21:24;;;;;;;1.67;1.10;;;14.60;79.00;;;;;;4921888;29;20044;-87
2023/03/14 02:23:53;;;;;;;1.80;1.20;;;14.50;79.00;;;;;;4920204;29;20032;-88
2023/03/14 02:26:31;;;;;;;1.70;1.13;;;14.50;79.00;;;;;;4919792;29;20035;-87
2023/03/14 02:28:58;;;;;;;2.33;1.40;;;14.50;79.10;;;;;;4904592;29;20040;-87
2023/03/14 02:31:24;;;;;;;1.52;1.33;;;14.50;79.10;;;;;;4920043;29;20455;-87
2023/03/14 02:33:50;;;;;;;1.27;1.00;;;14.50;79.70;;;;;;4919889;29;20123;-87
2023/03/14 02:36:19;;;;;;;2.03;0.98;;;14.50;79.10;;;;;;4905188;29;20040;-87
2023/03/14 02:38:51;;;;;;;1.95;1.15;;;14.50;79.10;;;;;;4904618;29;20474;-88
2023/03/14 02:41:18;;;;;;;1.92;1.20;;;14.50;79.20;;;;;;4920057;29;20036;-88
2023/03/14 02:43:50;;;;;;;1.98;1.10;;;14.40;79.10;;;;;;4903851;29;20028;-87
2023/03/14 02:46:19;;;;;;;2.10;1.10;;;14.50;79.20;;;;;;4904033;29;20044;-87
2023/03/14 02:48:52;;;;;;;1.70;1.20;;;14.40;79.10;;;;;;4887991;29;20056;-88
2023/03/14 02:51:19;;;;;;;2.83;1.40;;;14.40;79.10;;;;;;4919504;29;20040;-87
2023/03/14 02:53:47;;;;;;;2.45;1.20;;;14.40;79.10;;;;;;4890090;29;20077;-88
2023/03/14 02:56:13;;;;;;;1.98;1.08;;;14.40;79.20;;;;;;4920460;29;20064;-87
2023/03/14 02:58:39;;;;;;;2.58;1.30;;;14.40;79.20;;;;;;4905165;29;20488;-88
2023/03/14 03:01:17;;;;;;;0.93;0.93;;;14.40;79.20;;;;;;4918857;29;20068;-88
2023/03/14 03:03:43;;;;;;;2.35;1.20;;;14.30;79.20;;;;;;4904906;29;20028;-89
2023/03/14 03:06:09;;;;;;;2.13;1.00;;;14.30;79.20;;;;;;4904688;29;20088;-89
2023/03/14 03:08:35;;;;;;;2.40;1.30;;;14.30;79.20;;;;;;4888098;29;20113;-89
2023/03/14 03:11:00;;;;;;;1.35;1.00;;;14.30;79.20;;;;;;4888246;29;20484;-89
2023/03/14 03:13:29;;;;;;;2.35;1.05;;;14.20;79.20;;;;;;4903662;29;20036;-88
2023/03/14 03:15:56;;;;;;;1.60;1.25;;;14.20;79.20;;;;;;4903258;29;20027;-88
2023/03/14 03:18:22;;;;;;;1.55;1.20;;;14.20;79.20;;;;;;4887573;29;20032;-88
2023/03/14 03:20:48;;;;;;;2.42;1.20;;;14.20;79.30;;;;;;4903676;29;20043;-87
2023/03/14 03:23:15;;;;;;;2.40;1.10;;;14.20;79.30;;;;;;4903513;29;20027;-88
2023/03/14 03:25:41;;;;;;;1.42;1.00;;;14.20;79.30;;;;;;4921215;29;20043;-89
2023/03/14 03:28:07;;;;;;;1.23;1.05;;;14.20;79.30;;;;;;4890345;29;20465;-88
2023/03/14 03:30:40;;;;;;;3.30;1.40;;;14.20;79.30;;;;;;4907508;29;20119;-88
2023/03/14 03:33:06;;;;;;;1.85;1.13;;;14.10;79.30;;;;;;4904941;29;20024;-88
2023/03/14 03:35:33;;;;;;;3.10;1.10;;;14.10;79.30;;;;;;4889859;29;20114;-89
2023/03/14 03:37:59;;;;;;;1.63;1.10;;;14.10;79.30;;;;;;4921257;29;20066;-91
2023/03/14 03:40:26;;;;;;;1.08;0.93;;;14.10;79.40;;;;;;4904849;29;20044;-88
2023/03/14 03:42:52;;;;;;;0.90;0.90;;;14.00;79.30;;;;;;4920122;29;20055;-88
2023/03/14 03:45:19;;;;;;;2.13;1.50;;;14.00;79.30;;;;;;4919457;29;20028;-87
2023/03/14 03:47:51;;;;;;;1.67;1.10;;;14.00;80.00;;;;;;4904641;29;20144;-89
2023/03/14 03:50:17;;;;;;;1.50;1.40;;;14.00;79.30;;;;;;4919610;29;20430;-88
2023/03/14 03:52:42;;;;;;;1.42;1.20;;;14.00;79.40;;;;;;4887916;29;20032;-89
2023/03/14 03:55:08;;;;;;;1.52;1.20;;;14.00;79.40;;;;;;4902799;29;20359;-88
2023/03/14 03:57:34;;;;;;;2.22;1.30;;;14.00;79.40;;;;;;4903331;29;20462;-88
2023/03/14 04:00:00;;;;;;;1.55;1.17;;;14.00;79.40;;;;;;4919293;29;20084;-88
2023/03/14 04:02:27;;;;;;;1.88;1.30;;;13.90;79.40;;;;;;4902796;29;20107;-88
2023/03/14 04:04:53;;;;;;;1.40;1.00;;;13.90;79.40;;;;;;4921913;29;20056;-88
2023/03/14 04:07:19;;;;;;;2.28;1.30;;;13.90;79.40;;;;;;4893125;29;20406;-88
2023/03/14 04:09:45;;;;;;;2.05;1.05;;;13.90;79.40;;;;;;4912484;29;20044;-88
2023/03/14 04:12:21;;;;;;;2.67;1.25;;;13.90;79.40;;;;;;4888797;29;20036;-87
2023/03/14 04:14:58;;;;;;;2.10;1.30;;;13.80;79.40;;;;;;4904818;29;20084;-88
2023/03/14 04:17:24;;;;;;;2.70;1.30;;;13.80;79.40;;;;;;4917855;29;20036;-87
2023/03/14 04:19:53;;;;;;;1.58;1.27;;;13.80;79.40;;;;;;4887274;29;20028;-87
2023/03/14 04:22:21;;;;;;;3.08;1.35;;;13.80;79.40;;;;;;4918195;29;20067;-87
2023/03/14 04:24:49;;;;;;;1.20;1.10;;;13.80;79.40;;;;;;4917419;29;20092;-87
2023/03/14 04:27:15;;;;;;;2.22;1.30;;;13.80;80.10;;;;;;4902250;29;20055;-87
2023/03/14 04:29:42;;;;;;;2.17;1.30;;;13.80;79.50;;;;;;4886929;29;20123;-87
2023/03/14 04:32:10;;;;;;;2.13;1.20;;;13.80;79.50;;;;;;4902645;29;20480;-87
2023/03/14 04:34:37;;;;;;;2.25;1.27;;;13.70;79.50;;;;;;4902209;29;20029;-87
2023/03/14 04:37:03;;;;;;;1.52;1.15;;;13.70;79.50;;;;;;4901933;29;20381;-89
2023/03/14 04:39:41;;;;;;;2.67;1.55;;;13.70;79.50;;;;;;4902974;29;20040;-87
2023/03/14 04:42:15;;;;;;;1.70;1.20;;;13.70;79.50;;;;;;4916918;29;20410;-87
2023/03/14 04:44:43;;;;;;;3.17;1.35;;;13.70;79.50;;;;;;4917515;29;20029;-86
2023/03/14 04:47:09;;;;;;;1.50;1.23;;;13.70;79.50;;;;;;4886198;29;20036;-88
2023/03/14 04:49:36;;;;;;;2.58;1.35;;;13.60;79.50;;;;;;4917878;29;20064;-87
2023/03/14 04:52:02;;;;;;;2.42;1.40;;;13.60;79.50;;;;;;4917580;29;20032;-86
2023/03/14 04:54:30;;;;;;;1.95;1.55;;;13.60;79.50;;;;;;4902561;29;20422;-91
2023/03/14 04:56:58;;;;;;;2.05;1.30;;;13.60;79.50;;;;;;4917080;29;20035;-87
2023/03/14 04:59:27;;;;;;;1.42;1.15;;;13.60;79.50;;;;;;4918010;29;20036;-85
2023/03/14 05:01:57;;;;;;;2.45;1.45;;;13.60;79.50;;;;;;4901788;29;20039;-86
2023/03/14 05:04:46;;;;;;;2.38;1.10;;;13.60;79.50;;;;;;4902396;29;20032;-86
2023/03/14 05:07:31;;;;;;;1.60;1.08;;;13.60;79.50;;;;;;4904291;29;20067;-88
2023/03/14 05:10:10;;;;;;;1.88;1.20;;;13.50;79.50;;;;;;4931948;29;20029;-87
2023/03/14 05:13:09;;;;;;;1.85;1.30;;;13.50;79.50;;;;;;4901386;29;20040;-89
2023/03/14 05:15:55;;;;;;;2.10;1.25;;;13.60;79.60;;;;;;4901844;29;20039;-87
2023/03/14 05:18:39;;;;;;;1.35;1.10;;;13.50;79.50;;;;;;4919096;29;20130;-89
2023/03/14 05:21:11;;;;;;;1.63;1.15;;;13.50;79.60;;;;;;4886979;29;20090;-90
2023/03/14 05:24:03;;;;;;;1.20;1.10;;;13.50;79.60;;;;;;4901011;29;20511;-87
2023/03/14 05:26:50;;;;;;;3.15;1.40;;;13.50;79.60;;;;;;4901953;29;20094;-88
2023/03/14 05:29:47;;;;;;;1.00;0.90;;;13.50;79.60;;;;;;4851245;29;20038;-86
2023/03/14 05:32:22;;;;;;;2.95;1.20;;;13.40;79.50;;;;;;4917467;29;20462;-89
2023/03/14 05:35:06;;;;;;;1.20;1.10;;;13.40;79.60;;;;;;4904310;29;20096;-89
2023/03/14 05:37:51;;;;;;;1.20;1.10;;;13.40;79.60;;;;;;4901106;29;20042;-91
2023/03/14 05:40:35;;;;;;;1.63;1.25;;;13.40;79.60;;;;;;4904204;29;20099;-90
2023/03/14 05:43:21;;;;;;;1.50;1.10;;;13.40;79.60;;;;;;4904102;29;20062;-88
2023/03/14 05:45:54;;;;;;;1.60;1.10;;;13.40;79.70;;;;;;4902192;29;20428;-88
2023/03/14 05:48:38;;;;;;;1.47;1.10;;;13.40;79.70;;;;;;4901360;29;20056;-86
2023/03/14 05:51:30;;;;;;;1.25;1.10;;;13.40;79.60;;;;;;4897294;29;20072;-89
2023/03/14 05:54:15;;;;;;;1.65;1.10;;;13.30;79.60;;;;;;4930446;29;20099;-87
2023/03/14 05:56:48;;;;;;;1.48;1.10;;;13.40;79.60;;;;;;4916053;29;20043;-87
2023/03/14 05:59:25;;;;;;;1.38;1.27;;;13.30;79.60;;;;;;4901140;29;20032;-88
2023/03/14 06:01:59;;;;;;;1.60;1.20;;;13.30;79.60;;;;;;4915682;29;20078;-88
2023/03/14 06:04:28;;;;;;;1.10;0.98;;;13.30;79.60;;;;;;4915967;29;20087;-87
2023/03/14 06:06:58;;;;;;;1.58;1.00;;;13.30;79.60;;;;;;4900973;29;20028;-87
2023/03/14 06:09:24;;;;;;;1.20;1.08;;;13.30;79.70;;;;;;4900572;29;20032;-85
2023/03/14 06:11:53;;;;;;;1.20;1.02;;;13.30;79.60;;;;;;4900511;29;20036;-86
2023/03/14 06:14:18;;;;;;;2.03;1.30;;;13.30;79.60;;;;;;4901173;29;20123;-86
2023/03/14 06:16:48;;;;;;;1.45;1.10;;;13.30;79.70;;;;;;4901751;29;20020;-88
2023/03/14 06:19:17;;;;;;;0.93;0.85;;;13.30;79.70;;;;;;4932791;29;20032;-85
2023/03/14 06:21:43;;;;;;;1.00;1.00;;;13.30;79.60;;;;;;4916630;29;20036;-84
2023/03/14 06:24:08;;;;;;;1.85;1.10;;;13.30;79.60;;;;;;4900849;29;20032;-85
2023/03/14 06:26:40;;;;;;;1.23;1.08;;;13.30;79.60;;;;;;4904561;29;20036;-85
2023/03/14 06:29:06;;;;;;;1.27;1.10;;;13.30;80.30;;;;;;4904195;29;20099;-86
2023/03/14 06:31:33;;;;;;;0.80;0.80;;;13.30;79.70;;;;;;4920331;29;20040;-84
2023/03/14 06:34:02;;;;;;;1.20;1.10;;;13.30;79.70;;;;;;4920592;29;20043;-85
2023/03/14 06:36:30;;;;;;;1.50;1.10;;;13.30;79.70;;;;;;4920230;29;20123;-85
2023/03/14 06:38:57;;;;;;;1.67;1.10;;;13.30;79.70;;;;;;4920599;29;20074;-85
2023/03/14 06:41:25;;;;;;;1.13;1.00;;;13.30;79.70;;;;;;4922685;29;20036;-85
2023/03/14 06:43:52;;;;;;;1.67;1.20;;;13.30;79.70;;;;;;4923238;29;20032;-85
2023/03/14 06:46:19;;;;;;;1.25;1.15;;;13.30;79.70;;;;;;4892120;29;20096;-85
2023/03/14 06:48:45;;;;;;;1.90;1.10;;;13.20;79.60;;;;;;4905391;29;20480;-85
2023/03/14 06:51:11;;;;;;;1.15;1.05;;;13.30;79.70;;;;;;4922007;29;20036;-86
2023/03/14 06:53:37;;;;;;;1.10;1.00;;;13.20;79.60;;;;;;4904353;29;20055;-86
2023/03/14 06:56:04;;;;;;;1.27;1.10;;;13.20;79.60;;;;;;4903705;29;20450;-85
2023/03/14 06:58:32;;;;;;;1.58;1.15;;;13.30;79.70;;;;;;4904614;29;20051;-86
2023/03/14 07:00:59;;;;;;;1.20;1.10;;;13.20;79.60;;;;;;4919977;29;20179;-87
2023/03/14 07:03:30;;;;;;;1.48;1.35;;;13.20;79.60;;;;;;4888863;29;20036;-86
2023/03/14 07:05:56;;;;;;;1.23;1.13;;;13.20;79.60;;;;;;4919607;29;20478;-85
2023/03/14 07:08:22;;;;;;;1.42;1.13;;;13.20;79.70;;;;;;4888449;29;20119;-87
2023/03/14 07:10:48;;;;;;;2.08;1.10;;;13.20;79.70;;;;;;4919563;29;20036;-87
2023/03/14 07:13:14;;;;;;;1.48;1.33;;;13.20;79.70;;;;;;4919403;29;20028;-90
2023/03/14 07:15:55;;;;;;;1.27;1.17;;;13.20;79.70;;;;;;4922247;29;20028;-88
2023/03/14 07:18:21;;;;;;;2.42;1.23;;;13.20;79.80;;;;;;4889432;29;20053;-89
2023/03/14 07:20:47;;;;;;;1.65;1.33;;;13.20;79.80;;;;;;4920294;29;20039;-89
2023/03/14 07:23:14;;;;;;;2.40;1.20;;;13.20;79.80;;;;;;4888724;29;20028;-89
2023/03/14 07:25:45;;;;;;;1.65;1.27;;;13.10;79.80;;;;;;4889830;29;20060;-89
2023/03/14 07:28:13;;;;;;;1.70;1.17;;;13.20;79.80;;;;;;4903251;29;20043;-87
2023/03/14 07:30:41;;;;;;;1.67;1.30;;;13.20;79.80;;;;;;4903283;29;20370;-87
2023/03/14 07:33:16;;;;;;;2.55;1.40;;;13.20;79.80;;;;;;4903369;29;20047;-88
2023/03/14 07:35:42;;;;;;;1.30;1.20;;;13.20;79.80;;;;;;4902799;29;20033;-88
2023/03/14 07:38:08;;;;;;;1.42;1.33;;;13.20;79.80;;;;;;4886799;29;20028;-87
2023/03/14 07:40:39;;;;;;;1.30;1.20;;;13.20;79.80;;;;;;4903341;29;20048;-84
2023/03/14 07:43:06;;;;;;;1.67;1.30;;;13.20;79.90;;;;;;4919307;29;20048;-88
2023/03/14 07:45:47;;;;;;;1.67;1.30;;;13.20;79.90;;;;;;4920645;29;20051;-89
2023/03/14 07:48:13;;;;;;;1.65;1.45;;;13.20;79.90;;;;;;4902154;29;20067;-89
2023/03/14 07:50:39;;;;;;;2.13;1.48;;;13.20;79.90;;;;;;4903807;29;20044;-88
2023/03/14 07:53:05;;;;;;;1.35;1.25;;;13.20;79.90;;;;;;4904054;29;20059;-87
2023/03/14 07:55:31;;;;;;;1.88;1.45;;;13.20;80.00;;;;;;4919236;29;20374;-87
2023/03/14 07:57:56;;;;;;;1.77;1.20;;;13.20;80.00;;;;;;4889740;29;20036;-89
2023/03/14 08:00:22;;;;;;;1.33;1.23;;;13.20;80.00;;;;;;4919936;29;20429;-88
2023/03/14 08:02:48;;;;;;;1.40;1.30;;;13.20;80.00;;;;;;4934479;29;20036;-88
2023/03/14 08:05:14;;;;;;;1.23;1.13;;;13.10;80.00;;;;;;4918713;29;20029;-89
2023/03/14 08:07:40;;;;;;;1.67;1.30;;;13.10;79.90;;;;;;4918212;29;20044;-85
2023/03/14 08:10:06;;;;;;;1.40;1.30;;;13.10;80.00;;;;;;4902327;29;20457;-91
2023/03/14 08:12:32;;;;;;;1.25;1.13;;;13.10;80.00;;;;;;4902430;29;20032;-86
2023/03/14 08:14:59;;;;;;;1.60;1.40;;;13.10;80.00;;;;;;4902577;29;20032;-88
2023/03/14 08:17:25;;;;;;;1.50;1.17;;;13.10;80.00;;;;;;4902872;29;20095;-88
2023/03/14 08:19:51;;;;;;;1.70;1.40;;;13.10;80.00;;;;;;4918585;29;20182;-87
2023/03/14 08:22:17;;;;;;;1.35;1.23;;;13.10;80.00;;;;;;4902084;29;20076;-86
2023/03/14 08:24:43;;;;;;;1.45;1.25;;;13.10;80.00;;;;;;4902948;29;20024;-87
2023/03/14 08:27:08;;;;;;;1.65;1.20;;;13.10;80.00;;;;;;4917911;29;20448;-87
2023/03/14 08:29:34;;;;;;;1.92;1.30;;;13.00;80.00;;;;;;4934123;29;20115;-89
2023/03/14 08:32:00;;;;;;;1.20;1.10;;;13.00;80.00;;;;;;4902774;29;20529;-87
2023/03/14 08:34:26;;;;;;;1.15;1.08;;;13.00;79.90;;;;;;4902218;29;20032;-89
2023/03/14 08:36:52;;;;;;;1.00;1.00;;;13.00;80.00;;;;;;4934201;29;20481;-87
2023/03/14 08:39:18;;;;;;;1.42;1.13;;;13.00;80.00;;;;;;4918859;29;20038;-88
2023/03/14 08:41:44;;;;;;;1.13;1.02;;;13.00;80.00;;;;;;4917696;29;20111;-87
2023/03/14 08:44:11;;;;;;;1.10;1.00;;;13.00;80.00;;;;;;4917622;29;20040;-87
2023/03/14 08:46:37;;;;;;;1.10;1.10;;;13.00;80.00;;;;;;4918177;29;20036;-87
2023/03/14 08:49:03;;;;;;;1.27;1.00;;;12.90;80.00;;;;;;4885471;29;20134;-87
2023/03/14 08:51:29;;;;;;;1.35;1.10;;;12.90;79.90;;;;;;4901515;29;20063;-84
2023/03/14 08:53:55;;;;;;;1.25;1.15;;;12.90;79.90;;;;;;4886258;29;20064;-85
2023/03/14 08:56:21;;;;;;;0.93;0.90;;;12.90;79.90;;;;;;4902332;29;20043;-87
2023/03/14 08:58:47;;;;;;;0.98;0.90;;;12.90;79.90;;;;;;4917880;29;20028;-87
2023/03/14 09:01:12;;;;;;;1.35;1.00;;;12.90;79.90;;;;;;4918221;29;20465;-86
2023/03/14 09:03:38;;;;;;;1.95;1.00;;;12.90;79.90;;;;;;4918060;29;20046;-85
2023/03/14 09:06:06;;;;;;;1.00;1.00;;;12.80;79.90;;;;;;4917128;29;20405;-86
2023/03/14 09:08:33;;;;;;;1.35;1.05;;;12.80;79.80;;;;;;4901009;29;20043;-85
2023/03/14 09:10:59;;;;;;;2.67;1.42;;;12.80;79.90;;;;;;4917383;29;20094;-86
2023/03/14 09:13:25;;;;;;;2.10;1.00;;;12.80;79.90;;;;;;4885892;29;20020;-85
2023/03/14 09:15:55;;;;;;;1.63;0.90;;;12.80;79.90;;;;;;4917275;29;20035;-87
2023/03/14 09:18:22;;;;;;;1.35;1.10;;;12.80;79.90;;;;;;4886042;29;20024;-86
2023/03/14 09:20:48;;;;;;;1.13;0.90;;;12.80;79.90;;;;;;4901313;29;20537;-87
2023/03/14 09:23:15;;;;;;;0.95;0.95;;;12.70;79.80;;;;;;4917247;29;20032;-87
2023/03/14 09:25:40;;;;;;;1.10;1.00;;;12.70;79.80;;;;;;4901525;29;20028;-87
2023/03/14 09:28:06;;;;;;;0.80;0.80;;;12.70;79.80;;;;;;4916958;29;20088;-86
2023/03/14 09:30:32;;;;;;;1.80;1.08;;;12.70;79.80;;;;;;4917195;29;20107;-88
2023/03/14 09:32:58;;;;;;;1.38;1.00;;;12.60;79.70;;;;;;4902192;29;20036;-86
2023/03/14 09:35:25;;;;;;;1.83;1.10;;;12.60;79.70;;;;;;4933025;29;20060;-87
2023/03/14 09:37:51;;;;;;;0.80;0.80;;;12.60;79.60;;;;;;4885895;29;20036;-88
2023/03/14 09:40:19;;;;;;;0.82;0.82;;;12.60;79.50;;;;;;4933262;29;20490;-87
2023/03/14 09:42:53;;;;;;;0.70;0.70;;;12.60;79.50;;;;;;4916968;29;20064;-87
2023/03/14 09:45:38;;;;;;;1.33;1.00;;;12.60;79.50;;;;;;4885923;29;20123;-86
2023/03/14 09:48:05;;;;;;;1.08;0.90;;;12.60;79.50;;;;;;4933187;29;20056;-87
2023/03/14 09:50:38;;;;;;;0.85;0.85;;;12.50;79.40;;;;;;4917299;29;20036;-87
2023/03/14 09:53:15;;;;;;;0.80;0.80;;;12.50;79.40;;;;;;4901988;29;20039;-86
2023/03/14 09:55:42;;;;;;;1.23;0.93;;;12.50;79.50;;;;;;4903074;29;20036;-86
2023/03/14 09:58:13;;;;;;;0.85;0.85;;;12.50;79.50;;;;;;4886156;29;20021;-86
2023/03/14 10:00:39;;;;;;;0.90;0.90;;;12.50;79.50;;;;;;4936280;29;20036;-88
2023/03/14 10:03:14;;;;;;;1.08;0.90;;;12.40;79.40;;;;;;4906596;29;20028;-87
2023/03/14 10:05:41;;;;;;;1.33;0.93;;;12.40;79.50;;;;;;4938307;29;20036;-87
2023/03/14 10:08:11;;;;;;;1.75;0.90;;;12.40;79.40;;;;;;4921819;29;20028;-85
2023/03/14 10:10:37;;;;;;;1.38;0.90;;;12.40;79.40;;;;;;4904843;29;20024;-87
2023/03/14 10:13:27;;;;;;;2.40;1.10;;;12.40;79.30;;;;;;4889475;29;20030;-86
2023/03/14 10:15:54;;;;;;;1.92;1.00;;;12.40;79.30;;;;;;4921439;29;20032;-86
2023/03/14 10:18:21;;;;;;;2.13;0.90;;;12.40;79.20;;;;;;4936634;29;20448;-87
2023/03/14 10:20:49;;;;;;;2.30;1.30;;;12.30;79.20;;;;;;4905032;29;20043;-90
2023/03/14 10:23:16;;;;;;;0.93;0.90;;;12.30;79.10;;;;;;4888901;29;20068;-89
2023/03/14 10:25:45;;;;;;;1.05;0.98;;;12.30;79.20;;;;;;4920219;29;20050;-90
2023/03/14 10:28:33;;;;;;;2.05;1.30;;;12.30;79.20;;;;;;4888586;29;20036;-89
2023/03/14 10:31:00;;;;;;;1.58;1.10;;;12.20;79.20;;;;;;4921277;29;20063;-89
2023/03/14 10:33:28;;;;;;;3.75;1.30;;;12.30;79.20;;;;;;4889123;29;20095;-90
2023/03/14 10:35:59;;;;;;;2.22;1.00;;;12.30;79.20;;;;;;4937365;29;20466;-89
2023/03/14 10:38:36;;;;;;;2.22;1.33;;;12.30;79.10;;;;;;4904579;29;20500;-88
2023/03/14 10:41:27;;;;;;;2.58;1.20;;;12.30;79.10;;;;;;4935966;29;20036;-89
2023/03/14 10:44:01;;;;;;;1.73;1.00;;;12.20;79.00;;;;;;4920252;29;20028;-89
2023/03/14 10:46:32;;;;;;;1.27;1.00;;;12.20;79.00;;;;;;4935815;29;20104;-84
2023/03/14 10:49:36;;;;;;;4.43;1.40;;;12.20;79.00;;;;;;4933967;29;20097;-89
2023/03/14 10:52:24;;;;;;;3.17;1.30;;;12.20;79.00;;;;;;4904327;29;20035;-88
2023/03/14 10:55:00;;;;;;;3.47;1.50;;;12.20;79.00;;;;;;4935933;29;20123;-89
2023/03/14 10:57:26;;;;;;;3.22;1.50;;;12.20;79.00;;;;;;4919540;29;20367;-88
2023/03/14 10:59:54;;;;;;;3.15;1.30;;;12.10;78.80;;;;;;4903946;29;20046;-87
2023/03/14 11:02:26;;;;;;;3.80;1.58;;;12.20;78.80;;;;;;4904004;29;20091;-89
2023/03/14 11:05:10;;;;;;;4.57;1.52;;;12.20;78.80;;;;;;4920217;29;20055;-87
2023/03/14 11:07:42;;;;;;;4.00;1.38;;;12.20;78.80;;;;;;4935745;29;20032;-87
2023/03/14 11:10:34;;;;;;;4.32;1.67;;;12.20;78.80;;;;;;4903402;29;20462;-87
2023/03/14 11:13:24;;;;;;;2.45;1.40;;;12.20;78.80;;;;;;4934582;29;20040;-87
2023/03/14 11:15:55;;;;;;;2.35;1.30;;;12.20;78.80;;;;;;4919214;29;20039;-88
2023/03/14 11:18:55;;;;;;;2.63;1.23;;;12.20;78.80;;;;;;4935762;29;20130;-88
2023/03/14 11:21:35;;;;;;;6.28;1.75;;;12.10;78.80;;;;;;4903619;29;20040;-88
2023/03/14 11:24:29;;;;;;;3.63;1.50;;;12.10;78.80;;;;;;4904159;29;20481;-88
2023/03/14 11:27:16;;;;;;;2.05;1.27;;;12.10;78.80;;;;;;4935644;29;20082;-88
2023/03/14 11:29:45;;;;;;;2.70;1.48;;;12.10;78.80;;;;;;4887981;29;20028;-89
2023/03/14 11:32:19;;;;;;;3.63;1.52;;;12.10;78.70;;;;;;4919495;29;20030;-88
2023/03/14 11:34:51;;;;;;;2.13;1.45;;;12.10;78.70;;;;;;4903447;29;20047;-87
2023/03/14 11:37:31;;;;;;;3.60;1.42;;;12.10;78.70;;;;;;4919118;29;20059;-88
2023/03/14 11:40:14;;;;;;;4.47;1.65;;;12.10;78.70;;;;;;4918773;29;20032;-88
2023/03/14 11:42:43;;;;;;;5.18;1.85;;;12.10;78.70;;;;;;4903394;29;20143;-88
2023/03/14 11:45:20;;;;;;;3.83;1.40;;;12.10;78.70;;;;;;4903265;29;20544;-88
2023/03/14 11:47:59;;;;;;;3.55;1.60;;;12.00;78.60;;;;;;4903210;29;20035;-88
2023/03/14 11:50:29;;;;;;;3.38;1.40;;;12.00;78.60;;;;;;4903283;29;20087;-88
2023/03/14 11:53:03;;;;;;;2.03;1.30;;;12.10;78.50;;;;;;4903290;29;20044;-88
2023/03/14 11:55:35;;;;;;;2.20;1.25;;;12.00;78.40;;;;;;4919074;29;20593;-87
2023/03/14 11:58:20;;;;;;;5.45;2.20;;;12.00;78.40;;;;;;4902595;29;20036;-86
2023/03/14 12:00:48;;;;;;;;;;;12.00;78.40;;;;;;4918939;29;20040;-87
2023/03/14 12:03:32;;;;;;;2.65;1.77;;;12.00;78.40;;;;;;4919596;29;19911;-86
2023/03/14 12:06:19;;;;;;;4.05;1.55;;;12.00;78.40;;;;;;4902918;29;20027;-86
2023/03/14 12:09:03;;;;;;;3.80;1.48;;;12.00;78.50;;;;;;4902994;29;20032;-86
2023/03/14 12:11:56;;;;;;;4.75;1.70;;;12.00;78.40;;;;;;4918846;29;20039;-86
2023/03/14 12:14:35;;;;;;;3.92;1.60;;;12.00;78.30;;;;;;4934670;29;20120;-87
2023/03/14 12:17:06;;;;;;;3.58;1.50;;;12.00;78.20;;;;;;4902709;29;20036;-88
2023/03/14 12:19:37;;;;;;;4.38;1.52;;;12.00;78.20;;;;;;4918958;29;20099;-87
2023/03/14 12:22:30;;;;;;;4.45;1.80;;;11.90;78.20;;;;;;4887626;29;20150;-87
2023/03/14 12:25:11;;;;;;;3.13;1.52;;;12.00;78.20;;;;;;4904296;29;20028;-89
2023/03/14 12:27:48;;;;;;;4.15;2.08;;;11.90;78.10;;;;;;4920490;29;20365;-87
2023/03/14 12:30:36;;;;;;;3.85;1.63;;;12.00;78.00;;;;;;4920296;29;20040;-88
2023/03/14 12:33:08;;;;;;;5.45;1.63;;;12.00;78.00;;;;;;4905183;29;20044;-87
2023/03/14 12:35:40;;;;;;;4.13;1.67;;;11.90;77.80;;;;;;4937550;29;20029;-88
2023/03/14 12:38:23;;;;;;;2.45;1.30;;;11.90;77.80;;;;;;4922289;29;20032;-88
2023/03/14 12:41:22;;;;;;;1.98;1.30;;;12.00;77.70;;;;;;4921943;29;20358;-88
2023/03/14 12:43:49;;;;;;;2.08;1.10;;;12.00;77.70;;;;;;4925981;29;20039;-88
2023/03/14 12:46:19;;;;;;;3.83;1.40;;;11.90;77.70;;;;;;4942972;29;20024;-87
2023/03/14 12:48:50;;;;;;;3.45;1.90;;;11.90;77.80;;;;;;4924479;29;20048;-86
2023/03/14 12:51:37;;;;;;;2.58;1.30;;;11.90;77.80;;;;;;4938234;29;20060;-87
2023/03/14 12:54:50;;;;;;;2.47;1.30;;;11.90;77.80;;;;;;4906860;29;20028;-87
2023/03/14 12:57:41;;;;;;;2.20;1.30;;;11.90;77.90;;;;;;4862064;29;20556;-87
2023/03/14 13:00:21;;;;;;;2.28;1.20;;;11.90;77.60;;;;;;4918666;29;20056;-86
2023/03/14 13:02:49;;;;;;;3.63;1.50;;;11.90;77.50;;;;;;4887208;29;20028;-87
2023/03/14 13:05:25;;;;;;;2.75;1.50;;;11.90;77.50;;;;;;4918466;29;20036;-87
2023/03/14 13:07:54;;;;;;;4.80;1.52;;;11.90;77.40;;;;;;4903538;29;20042;-87
2023/03/14 13:10:47;;;;;;;2.90;1.30;;;11.90;77.40;;;;;;4939217;29;20040;-87